Time;durP1;ratioP1;P1;durP2;ratioP2;P2;SDS_P1;SDS_P2;PMS_P1;PMS_P2;Temp;Humidity;BMP_temperature;BMP_pressure;BME280_temperature;BME280_humidity;BME280_pressure;Samples;Min_cycle;Max_cycle;Signal;HPM_P1;HPM_P2
2021/09/22 00:00:47;;;;;;;26.35;15.80;;;6.60;97.30;;;;;;5095131;28;20108;-71
2021/09/22 00:03:13;;;;;;;25.00;15.90;;;6.60;97.20;;;;;;5093770;28;20056;-70
2021/09/22 00:05:39;;;;;;;23.10;15.65;;;6.60;97.10;;;;;;5091034;28;20024;-71
2021/09/22 00:08:04;;;;;;;23.95;14.98;;;6.60;96.90;;;;;;5094743;28;20098;-71
2021/09/22 00:10:30;;;;;;;25.90;15.55;;;6.70;97.10;;;;;;5094383;28;20059;-71
2021/09/22 00:12:56;;;;;;;21.00;14.70;;;6.60;97.20;;;;;;5093658;28;20421;-70
2021/09/22 00:15:24;;;;;;;26.17;15.85;;;6.60;97.20;;;;;;5094519;28;20369;-71
2021/09/22 00:17:50;;;;;;;24.15;15.57;;;6.50;97.20;;;;;;5094640;28;20111;-70
2021/09/22 00:20:17;;;;;;;22.52;14.32;;;6.50;97.30;;;;;;5095090;28;20031;-71
2021/09/22 00:22:43;;;;;;;21.40;14.23;;;6.40;96.70;;;;;;5093530;28;20024;-70
2021/09/22 00:25:10;;;;;;;22.88;14.27;;;6.50;96.50;;;;;;5094856;28;20111;-71
2021/09/22 00:27:37;;;;;;;24.35;14.68;;;6.50;96.20;;;;;;5093392;28;20020;-71
2021/09/22 00:30:03;;;;;;;24.08;14.88;;;6.60;96.30;;;;;;5093346;28;20323;-70
2021/09/22 00:32:29;;;;;;;22.23;14.30;;;6.60;96.20;;;;;;5094986;28;20047;-71
2021/09/22 00:34:55;;;;;;;28.75;15.40;;;6.60;96.40;;;;;;5093846;28;20454;-71
2021/09/22 00:37:21;;;;;;;23.35;14.48;;;6.60;96.90;;;;;;5093546;28;20025;-71
2021/09/22 00:39:47;;;;;;;24.90;15.50;;;6.50;97.10;;;;;;5095002;28;20028;-70
2021/09/22 00:42:13;;;;;;;23.95;14.55;;;6.50;97.20;;;;;;5093789;28;20031;-70
2021/09/22 00:44:53;;;;;;;23.33;14.60;;;6.40;97.10;;;;;;5094170;28;20526;-70
2021/09/22 00:47:20;;;;;;;28.80;14.95;;;6.40;97.00;;;;;;5094033;28;20119;-71
2021/09/22 00:49:46;;;;;;;26.25;14.85;;;6.30;97.20;;;;;;5094524;28;20074;-71
2021/09/22 00:52:16;;;;;;;24.83;14.70;;;6.20;97.20;;;;;;5094325;28;20032;-70
2021/09/22 00:54:43;;;;;;;24.75;15.02;;;6.10;97.20;;;;;;5096280;28;20066;-70
2021/09/22 00:57:14;;;;;;;27.88;15.93;;;6.10;97.20;;;;;;5094574;28;20028;-70
2021/09/22 00:59:40;;;;;;;23.77;15.57;;;6.00;96.90;;;;;;5098451;28;20027;-69
2021/09/22 01:02:07;;;;;;;20.52;14.05;;;6.00;96.70;;;;;;5097983;28;20071;-70
2021/09/22 01:04:33;;;;;;;26.77;15.52;;;6.00;96.60;;;;;;5097950;28;20316;-69
2021/09/22 01:06:59;;;;;;;23.45;15.25;;;6.00;95.50;;;;;;5098801;28;20032;-69
2021/09/22 01:09:26;;;;;;;27.75;15.88;;;6.10;96.30;;;;;;5097415;28;20024;-68
2021/09/22 01:11:52;;;;;;;29.33;16.65;;;6.10;96.10;;;;;;5096768;28;20096;-69
2021/09/22 01:14:26;;;;;;;26.60;16.33;;;6.10;96.00;;;;;;5098236;28;20127;-68
2021/09/22 01:16:52;;;;;;;29.98;17.90;;;6.10;96.10;;;;;;5096389;28;20462;-69
2021/09/22 01:19:20;;;;;;;27.17;17.15;;;6.00;95.90;;;;;;5130195;27;20035;-70
2021/09/22 01:21:50;;;;;;;25.90;16.65;;;6.10;95.70;;;;;;5097785;28;20031;-70
2021/09/22 01:24:16;;;;;;;29.73;18.40;;;6.10;95.70;;;;;;5095702;28;20020;-71
2021/09/22 01:26:43;;;;;;;29.33;17.85;;;6.10;96.10;;;;;;5095162;28;20174;-70
2021/09/22 01:29:09;;;;;;;25.35;16.90;;;6.10;95.90;;;;;;5097738;28;20084;-71
2021/09/22 01:31:37;;;;;;;29.38;18.55;;;6.10;95.90;;;;;;5097127;28;20036;-70
2021/09/22 01:34:05;;;;;;;29.20;18.15;;;6.10;96.10;;;;;;5096989;28;20312;-70
2021/09/22 01:36:31;;;;;;;29.88;18.10;;;6.10;96.20;;;;;;5096804;28;20400;-70
2021/09/22 01:38:57;;;;;;;29.58;17.90;;;6.10;96.00;;;;;;5097206;28;20184;-70
2021/09/22 01:41:23;;;;;;;30.55;17.75;;;6.10;96.10;;;;;;5096644;28;20020;-70
2021/09/22 01:43:49;;;;;;;27.95;17.08;;;6.20;96.20;;;;;;5097558;28;20527;-69
2021/09/22 01:46:15;;;;;;;30.23;17.45;;;6.10;96.90;;;;;;5098121;28;20032;-70
2021/09/22 01:48:40;;;;;;;29.45;17.48;;;6.00;96.90;;;;;;5098123;28;20409;-69
2021/09/22 01:51:09;;;;;;;30.65;17.20;;;5.90;96.80;;;;;;5097509;28;20024;-70
2021/09/22 01:53:34;;;;;;;28.17;17.88;;;5.90;96.40;;;;;;5096931;28;20404;-70
2021/09/22 01:56:02;;;;;;;28.58;17.60;;;5.90;96.40;;;;;;5095592;28;20020;-69
2021/09/22 01:58:32;;;;;;;27.02;17.10;;;5.90;96.00;;;;;;5084144;28;20047;-70
2021/09/22 02:01:05;;;;;;;27.52;17.15;;;6.00;96.20;;;;;;5097343;28;20035;-71
2021/09/22 02:03:31;;;;;;;28.17;17.65;;;6.00;96.50;;;;;;5096996;28;20028;-68
2021/09/22 02:05:57;;;;;;;27.45;16.98;;;6.00;96.30;;;;;;5093090;28;20031;-70
2021/09/22 02:08:22;;;;;;;28.33;18.42;;;5.90;96.70;;;;;;5097120;28;20035;-70
2021/09/22 02:10:48;;;;;;;30.35;18.98;;;6.00;95.90;;;;;;5096529;28;20035;-71
2021/09/22 02:13:14;;;;;;;30.73;19.10;;;6.10;96.40;;;;;;5096307;28;20028;-70
2021/09/22 02:15:40;;;;;;;32.63;18.73;;;6.00;96.60;;;;;;5097313;28;20089;-71
2021/09/22 02:18:08;;;;;;;26.20;17.85;;;6.10;96.70;;;;;;5097281;28;20040;-69
2021/09/22 02:20:35;;;;;;;28.60;17.42;;;6.00;97.00;;;;;;5097480;28;20025;-71
2021/09/22 02:23:01;;;;;;;27.45;18.20;;;6.00;97.00;;;;;;5090945;28;20049;-71
2021/09/22 02:25:27;;;;;;;28.55;17.50;;;6.00;96.90;;;;;;5092612;28;20020;-71
2021/09/22 02:27:52;;;;;;;30.73;18.02;;;6.00;97.00;;;;;;5095412;28;20038;-71
2021/09/22 02:30:21;;;;;;;29.25;17.90;;;5.90;97.30;;;;;;5097537;28;20420;-70
2021/09/22 02:32:48;;;;;;;28.02;18.42;;;5.90;97.10;;;;;;5096846;28;20042;-70
2021/09/22 02:35:13;;;;;;;30.50;18.88;;;5.90;97.00;;;;;;5096106;28;20455;-71
2021/09/22 02:37:39;;;;;;;30.35;19.80;;;5.90;97.00;;;;;;5097554;28;20053;-70
2021/09/22 02:40:09;;;;;;;30.52;18.23;;;6.00;97.00;;;;;;5096793;28;20048;-70
2021/09/22 02:42:35;;;;;;;26.58;17.33;;;6.00;97.20;;;;;;5095300;28;20141;-68
2021/09/22 02:45:01;;;;;;;30.52;17.77;;;5.90;97.60;;;;;;5096200;28;20285;-68
2021/09/22 02:47:27;;;;;;;27.92;17.17;;;5.90;97.50;;;;;;5096688;28;20028;-68
2021/09/22 02:49:53;;;;;;;29.15;18.92;;;5.80;97.60;;;;;;5097444;28;20039;-68
2021/09/22 02:52:18;;;;;;;27.98;19.35;;;5.90;97.20;;;;;;5097275;28;20020;-68
2021/09/22 02:54:44;;;;;;;31.08;19.02;;;5.90;97.40;;;;;;5096176;28;20350;-68
2021/09/22 02:57:10;;;;;;;28.92;18.20;;;6.00;97.60;;;;;;5095163;28;20424;-68
2021/09/22 02:59:36;;;;;;;29.30;18.90;;;6.00;98.00;;;;;;5095956;28;20020;-68
2021/09/22 03:02:02;;;;;;;30.17;18.30;;;6.00;98.00;;;;;;5096526;28;20028;-67
2021/09/22 03:04:28;;;;;;;28.50;18.75;;;6.00;98.00;;;;;;5096866;28;20301;-67
2021/09/22 03:06:53;;;;;;;25.23;16.92;;;5.90;98.00;;;;;;5096932;28;20032;-67
2021/09/22 03:09:19;;;;;;;29.15;18.08;;;5.90;98.00;;;;;;5095282;28;20478;-67
2021/09/22 03:11:45;;;;;;;28.42;18.40;;;5.90;98.00;;;;;;5094724;28;20024;-68
2021/09/22 03:14:11;;;;;;;24.38;16.50;;;5.80;98.00;;;;;;5096607;28;20024;-68
2021/09/22 03:16:36;;;;;;;25.98;17.25;;;5.70;98.00;;;;;;5093932;28;20498;-68
2021/09/22 03:19:02;;;;;;;25.73;16.75;;;5.60;98.00;;;;;;5096403;28;20409;-68
2021/09/22 03:21:29;;;;;;;26.52;17.38;;;5.60;98.00;;;;;;5095431;28;20424;-69
2021/09/22 03:23:55;;;;;;;26.98;17.92;;;5.50;98.00;;;;;;5095374;28;20016;-69
2021/09/22 03:26:22;;;;;;;24.40;15.93;;;5.50;98.00;;;;;;5094341;28;20032;-68
2021/09/22 03:28:48;;;;;;;28.52;18.70;;;5.40;98.00;;;;;;5095253;28;20370;-69
2021/09/22 03:31:14;;;;;;;28.08;18.05;;;5.30;97.70;;;;;;5095198;28;20020;-69
2021/09/22 03:33:40;;;;;;;27.35;17.13;;;5.30;97.50;;;;;;5095603;28;20081;-70
2021/09/22 03:36:06;;;;;;;27.23;17.42;;;5.30;97.30;;;;;;5094875;28;20035;-70
2021/09/22 03:38:32;;;;;;;27.00;18.10;;;5.40;97.00;;;;;;5095108;28;20111;-68
2021/09/22 03:40:59;;;;;;;28.42;17.55;;;5.50;96.50;;;;;;5095245;28;20027;-69
2021/09/22 03:43:25;;;;;;;31.42;18.48;;;5.70;96.80;;;;;;5093251;28;20027;-69
2021/09/22 03:45:51;;;;;;;26.73;17.67;;;5.70;97.20;;;;;;5095404;28;20024;-70
2021/09/22 03:48:17;;;;;;;26.88;18.25;;;5.70;97.70;;;;;;5094939;28;20444;-70
2021/09/22 03:50:48;;;;;;;30.42;18.42;;;5.60;98.00;;;;;;5094879;28;20325;-70
2021/09/22 03:53:21;;;;;;;30.55;18.52;;;5.60;98.00;;;;;;5096356;28;20107;-70
2021/09/22 03:55:47;;;;;;;28.83;17.80;;;5.60;98.00;;;;;;5095455;28;20063;-70
2021/09/22 03:58:14;;;;;;;29.83;18.50;;;5.50;97.70;;;;;;5093966;28;20063;-69
2021/09/22 04:00:41;;;;;;;24.50;16.63;;;5.50;98.00;;;;;;5094997;28;20107;-67
2021/09/22 04:03:07;;;;;;;24.10;16.55;;;5.40;97.50;;;;;;5095025;28;20020;-68
2021/09/22 04:05:33;;;;;;;26.27;16.60;;;5.40;97.80;;;;;;5094642;28;20031;-68
2021/09/22 04:07:59;;;;;;;27.20;16.42;;;5.50;97.60;;;;;;5095008;28;20161;-68
2021/09/22 04:10:24;;;;;;;26.08;16.70;;;5.40;97.80;;;;;;5093901;28;20301;-71
2021/09/22 04:12:50;;;;;;;27.38;17.88;;;5.50;97.80;;;;;;5093794;28;20372;-70
2021/09/22 04:15:16;;;;;;;27.05;17.33;;;5.40;97.60;;;;;;5094771;28;20032;-70
2021/09/22 04:17:42;;;;;;;30.65;17.95;;;5.50;97.60;;;;;;5094996;28;20074;-70
2021/09/22 04:20:08;;;;;;;27.95;17.67;;;5.50;97.80;;;;;;5094514;28;20444;-70
2021/09/22 04:22:35;;;;;;;25.25;17.35;;;5.40;98.00;;;;;;5094617;28;20027;-70
2021/09/22 04:25:02;;;;;;;28.30;18.63;;;5.40;97.80;;;;;;5094783;28;20052;-70
2021/09/22 04:27:27;;;;;;;31.05;19.30;;;5.40;97.20;;;;;;5093534;28;20486;-70
2021/09/22 04:29:53;;;;;;;28.20;16.80;;;5.50;97.60;;;;;;5095068;28;20028;-70
2021/09/22 04:32:19;;;;;;;25.85;16.73;;;5.40;97.40;;;;;;5095948;28;20024;-69
2021/09/22 04:34:47;;;;;;;25.45;17.35;;;5.40;97.70;;;;;;5094200;28;20408;-70
2021/09/22 04:37:16;;;;;;;26.77;17.00;;;5.40;97.40;;;;;;5095192;28;20036;-70
2021/09/22 04:39:42;;;;;;;28.70;17.67;;;5.40;96.70;;;;;;5095540;28;20141;-70
2021/09/22 04:42:08;;;;;;;22.58;15.30;;;5.40;97.60;;;;;;5093113;28;20033;-70
2021/09/22 04:44:34;;;;;;;26.08;16.25;;;5.30;97.20;;;;;;5090706;28;20028;-70
2021/09/22 04:46:59;;;;;;;31.38;17.23;;;5.30;97.10;;;;;;5093901;28;20036;-70
2021/09/22 04:49:25;;;;;;;30.48;17.83;;;5.20;97.30;;;;;;5095003;28;20312;-70
2021/09/22 04:51:51;;;;;;;25.75;16.88;;;5.20;97.40;;;;;;5093663;28;20036;-70
2021/09/22 04:54:19;;;;;;;28.63;18.55;;;5.10;97.50;;;;;;5093382;28;20404;-70
2021/09/22 04:56:45;;;;;;;26.13;17.63;;;5.00;97.50;;;;;;5091873;28;20070;-70
2021/09/22 04:59:11;;;;;;;26.00;16.55;;;4.80;97.50;;;;;;5094697;28;20356;-69
2021/09/22 05:01:38;;;;;;;28.48;17.92;;;4.70;97.40;;;;;;5094136;28;20320;-69
2021/09/22 05:04:04;;;;;;;29.25;16.67;;;4.60;97.10;;;;;;5095256;28;20028;-70
2021/09/22 05:06:29;;;;;;;27.90;17.40;;;4.60;96.60;;;;;;5093602;28;20028;-69
2021/09/22 05:08:58;;;;;;;34.53;19.25;;;4.60;96.70;;;;;;5095173;28;20408;-69
2021/09/22 05:11:25;;;;;;;28.05;17.40;;;4.60;96.20;;;;;;5093512;28;20028;-70
2021/09/22 05:13:51;;;;;;;33.95;20.33;;;4.60;96.20;;;;;;5095121;28;20024;-70
2021/09/22 05:16:17;;;;;;;28.45;17.60;;;4.60;95.60;;;;;;5095062;28;20050;-70
2021/09/22 05:18:43;;;;;;;33.40;20.75;;;4.70;95.70;;;;;;5094733;28;20024;-70
2021/09/22 05:21:08;;;;;;;29.10;18.45;;;4.90;95.40;;;;;;5094242;28;20427;-70
2021/09/22 05:23:34;;;;;;;27.13;17.25;;;5.00;95.30;;;;;;5095164;28;20095;-70
2021/09/22 05:26:00;;;;;;;35.03;19.23;;;5.00;95.20;;;;;;5093879;28;20103;-69
2021/09/22 05:28:25;;;;;;;30.05;19.48;;;5.10;94.60;;;;;;5094830;28;20032;-70
2021/09/22 05:30:51;;;;;;;32.33;18.88;;;5.30;95.00;;;;;;5094222;28;20036;-70
2021/09/22 05:33:17;;;;;;;28.27;17.90;;;5.30;95.20;;;;;;5095131;28;20478;-70
2021/09/22 05:35:43;;;;;;;32.10;18.90;;;5.40;95.50;;;;;;5095074;28;20051;-70
2021/09/22 05:38:11;;;;;;;26.17;17.90;;;5.40;95.50;;;;;;5095032;28;20039;-71
2021/09/22 05:40:37;;;;;;;25.88;17.48;;;5.50;95.70;;;;;;5095988;28;20278;-70
2021/09/22 05:43:03;;;;;;;27.90;17.05;;;5.60;96.60;;;;;;5097420;28;20020;-70
2021/09/22 05:45:29;;;;;;;26.75;17.45;;;5.60;96.80;;;;;;5098579;28;20024;-70
2021/09/22 05:47:54;;;;;;;29.10;16.85;;;5.70;97.00;;;;;;5098328;28;20039;-70
2021/09/22 05:50:20;;;;;;;27.23;17.10;;;5.80;97.40;;;;;;5098563;28;20038;-70
2021/09/22 05:52:46;;;;;;;26.88;18.02;;;5.80;97.50;;;;;;5098487;28;20035;-70
2021/09/22 05:55:11;;;;;;;26.40;17.88;;;5.90;98.00;;;;;;5096633;28;20428;-70
2021/09/22 05:57:37;;;;;;;30.15;17.92;;;6.00;98.00;;;;;;5096878;28;20328;-69
2021/09/22 06:00:04;;;;;;;23.83;16.35;;;6.00;98.00;;;;;;5097351;28;20028;-70
2021/09/22 06:02:30;;;;;;;28.70;16.17;;;6.10;98.00;;;;;;5098322;28;20020;-70
2021/09/22 06:04:56;;;;;;;25.77;16.17;;;6.20;98.00;;;;;;5097047;28;20050;-70
2021/09/22 06:07:21;;;;;;;26.45;16.48;;;6.30;98.00;;;;;;5097574;28;20061;-70
2021/09/22 06:09:47;;;;;;;25.75;16.95;;;6.40;98.00;;;;;;5096668;28;20020;-70
2021/09/22 06:12:12;;;;;;;25.60;17.05;;;6.50;98.00;;;;;;5096770;28;20028;-70
2021/09/22 06:14:38;;;;;;;24.20;17.05;;;6.60;98.00;;;;;;5096410;28;20028;-69
2021/09/22 06:17:06;;;;;;;23.80;16.27;;;6.70;98.00;;;;;;5097636;28;20432;-70
2021/09/22 06:19:32;;;;;;;23.88;16.25;;;6.90;98.00;;;;;;5097757;28;20034;-70
2021/09/22 06:21:58;;;;;;;23.60;16.13;;;7.10;98.00;;;;;;5097321;28;20099;-70
2021/09/22 06:24:24;;;;;;;23.63;16.42;;;7.20;98.00;;;;;;5097247;28;20062;-70
2021/09/22 06:26:49;;;;;;;22.92;15.82;;;7.40;98.00;;;;;;5095559;28;20519;-70
2021/09/22 06:29:15;;;;;;;26.10;17.02;;;7.60;98.00;;;;;;5096942;28;20038;-70
2021/09/22 06:31:41;;;;;;;22.85;16.85;;;7.70;98.00;;;;;;5096680;28;20043;-70
2021/09/22 06:34:07;;;;;;;23.25;17.02;;;7.80;98.00;;;;;;5097361;28;20028;-70
2021/09/22 06:36:33;;;;;;;37.97;22.02;;;8.00;98.00;;;;;;5097451;28;20024;-70
2021/09/22 06:38:59;;;;;;;74.57;35.22;;;8.10;98.00;;;;;;5095994;28;20021;-70
2021/09/22 06:41:29;;;;;;;65.53;30.75;;;8.20;98.00;;;;;;5095849;28;20028;-69
2021/09/22 06:44:00;;;;;;;34.95;21.08;;;8.20;98.00;;;;;;5097267;28;20349;-70
2021/09/22 06:46:28;;;;;;;26.75;19.15;;;8.30;98.00;;;;;;5097431;28;20092;-70
2021/09/22 06:48:53;;;;;;;31.55;20.40;;;8.40;98.00;;;;;;5097311;28;20024;-70
2021/09/22 06:51:19;;;;;;;29.40;19.02;;;8.50;98.00;;;;;;5097112;28;20423;-70
2021/09/22 06:53:46;;;;;;;26.23;18.77;;;8.50;98.00;;;;;;5097049;28;20316;-69
2021/09/22 06:56:12;;;;;;;29.95;18.45;;;8.60;98.00;;;;;;5095839;28;20039;-68
2021/09/22 06:58:38;;;;;;;26.13;17.58;;;8.80;98.00;;;;;;5096061;28;20024;-68
2021/09/22 07:01:03;;;;;;;25.48;18.05;;;9.00;98.00;;;;;;5097129;28;20116;-69
2021/09/22 07:03:29;;;;;;;23.95;18.05;;;9.10;98.00;;;;;;5096486;28;20032;-67
2021/09/22 07:05:55;;;;;;;27.83;18.10;;;9.30;98.00;;;;;;5095881;28;20417;-69
2021/09/22 07:08:24;;;;;;;25.88;17.70;;;9.30;98.00;;;;;;5096984;28;20425;-70
2021/09/22 07:10:49;;;;;;;24.20;17.55;;;9.40;98.00;;;;;;5096922;28;20312;-71
2021/09/22 07:13:15;;;;;;;25.80;18.48;;;9.60;98.00;;;;;;5095857;28;20024;-69
2021/09/22 07:15:42;;;;;;;24.95;17.83;;;9.90;98.00;;;;;;5096743;28;20412;-70
2021/09/22 07:18:09;;;;;;;28.55;16.70;;;10.10;98.00;;;;;;5095570;28;20028;-70
2021/09/22 07:20:35;;;;;;;26.05;16.10;;;10.20;98.00;;;;;;5096694;28;20081;-70
2021/09/22 07:23:04;;;;;;;24.52;15.90;;;10.40;98.00;;;;;;5096330;28;20420;-71
2021/09/22 07:25:29;;;;;;;21.13;15.80;;;10.60;98.00;;;;;;5076564;28;20028;-70
2021/09/22 07:27:55;;;;;;;22.58;15.27;;;10.80;98.00;;;;;;5101593;28;20039;-69
2021/09/22 07:30:21;;;;;;;20.80;14.27;;;10.90;98.00;;;;;;5116948;28;20320;-70
2021/09/22 07:32:49;;;;;;;20.55;15.13;;;11.00;97.40;;;;;;5116989;28;20030;-70
2021/09/22 07:35:16;;;;;;;25.52;15.85;;;11.30;97.30;;;;;;5116638;28;20023;-71
2021/09/22 07:37:43;;;;;;;23.77;15.25;;;11.40;95.90;;;;;;5116923;28;20042;-69
2021/09/22 07:40:09;;;;;;;20.55;14.65;;;11.50;96.80;;;;;;5116753;28;20031;-71
2021/09/22 07:42:35;;;;;;;19.00;14.35;;;11.80;96.70;;;;;;5115518;28;20030;-70
2021/09/22 07:45:02;;;;;;;15.30;11.40;;;11.90;95.90;;;;;;5116692;28;20020;-70
2021/09/22 07:47:28;;;;;;;17.48;11.80;;;11.90;95.60;;;;;;5116475;28;20315;-70
2021/09/22 07:49:53;;;;;;;17.48;11.45;;;11.80;96.30;;;;;;5116597;28;20098;-70
2021/09/22 07:52:19;;;;;;;17.30;12.93;;;11.90;96.40;;;;;;5098758;28;20036;-70
2021/09/22 07:54:45;;;;;;;18.75;12.35;;;12.00;96.90;;;;;;5095968;28;20032;-70
2021/09/22 07:57:11;;;;;;;15.77;11.70;;;12.20;96.10;;;;;;5094343;28;20035;-70
2021/09/22 07:59:37;;;;;;;17.42;12.23;;;12.20;95.10;;;;;;5095966;28;20020;-70
2021/09/22 08:02:03;;;;;;;18.15;13.32;;;12.30;95.50;;;;;;5095175;28;20358;-70
2021/09/22 08:04:30;;;;;;;18.02;12.27;;;12.30;94.70;;;;;;5095311;28;20020;-69
2021/09/22 08:06:58;;;;;;;21.13;11.60;;;12.50;94.70;;;;;;5095989;28;20028;-69
2021/09/22 08:09:24;;;;;;;15.65;11.32;;;12.70;94.30;;;;;;5095969;28;20035;-70
2021/09/22 08:11:50;;;;;;;13.93;10.93;;;13.10;92.00;;;;;;5093900;28;20329;-70
2021/09/22 08:14:16;;;;;;;17.73;11.10;;;13.70;90.60;;;;;;5094837;28;20024;-70
2021/09/22 08:16:44;;;;;;;15.30;10.57;;;14.30;89.80;;;;;;5095501;28;20052;-70
2021/09/22 08:19:10;;;;;;;14.25;9.98;;;14.90;86.70;;;;;;5095594;28;20035;-69
2021/09/22 08:21:37;;;;;;;13.30;9.93;;;15.50;85.10;;;;;;5095999;28;20036;-71
2021/09/22 08:24:03;;;;;;;15.18;10.40;;;16.10;83.50;;;;;;5095477;28;20416;-71
2021/09/22 08:26:29;;;;;;;13.52;9.82;;;16.90;82.00;;;;;;5094549;28;20111;-70
2021/09/22 08:28:58;;;;;;;13.73;10.77;;;17.40;81.60;;;;;;5095349;28;20019;-71
2021/09/22 08:31:24;;;;;;;12.43;8.85;;;18.00;79.90;;;;;;5095378;28;20416;-71
2021/09/22 08:33:52;;;;;;;7.43;4.82;;;19.10;76.80;;;;;;5095144;28;20028;-71
2021/09/22 08:36:18;;;;;;;8.77;5.25;;;19.30;67.20;;;;;;5094527;28;20325;-71
2021/09/22 08:38:44;;;;;;;7.78;5.05;;;18.90;66.30;;;;;;5095626;28;20036;-70
2021/09/22 08:41:12;;;;;;;6.93;4.85;;;18.80;68.30;;;;;;5094416;28;20099;-71
2021/09/22 08:43:38;;;;;;;8.15;4.90;;;18.90;67.70;;;;;;5094263;28;20022;-71
2021/09/22 08:46:04;;;;;;;7.00;4.75;;;19.70;66.90;;;;;;5095498;28;20020;-71
2021/09/22 08:48:30;;;;;;;6.13;4.63;;;20.10;65.70;;;;;;5095436;28;20107;-71
2021/09/22 08:50:56;;;;;;;10.88;4.55;;;20.30;66.00;;;;;;5095576;28;20028;-71
2021/09/22 08:53:22;;;;;;;7.13;4.68;;;20.40;65.90;;;;;;5095026;28;20115;-69
2021/09/22 08:55:48;;;;;;;9.23;4.82;;;20.70;64.20;;;;;;5095475;28;20035;-70
2021/09/22 08:58:14;;;;;;;7.72;4.68;;;20.80;64.50;;;;;;5094301;28;20024;-70
2021/09/22 09:00:40;;;;;;;9.40;5.00;;;20.70;64.90;;;;;;5095315;28;20028;-71
2021/09/22 09:03:06;;;;;;;9.40;5.18;;;20.50;64.10;;;;;;5095548;28;20091;-71
2021/09/22 09:05:31;;;;;;;8.52;5.40;;;20.50;64.00;;;;;;5095268;28;20094;-70
2021/09/22 09:08:02;;;;;;;11.07;5.97;;;20.40;65.20;;;;;;5095242;28;20024;-71
2021/09/22 09:10:33;;;;;;;7.80;5.22;;;20.20;66.80;;;;;;5095094;28;20086;-71
2021/09/22 09:13:11;;;;;;;7.38;5.43;;;19.80;67.90;;;;;;5093890;28;20042;-71
2021/09/22 09:15:44;;;;;;;8.38;5.93;;;20.00;68.20;;;;;;5096052;28;20047;-70
2021/09/22 09:18:13;;;;;;;8.45;5.32;;;19.60;67.30;;;;;;5099286;28;20107;-71
2021/09/22 09:20:38;;;;;;;8.15;5.35;;;19.60;68.90;;;;;;5098980;28;20024;-70
2021/09/22 09:23:14;;;;;;;9.02;5.30;;;20.70;66.60;;;;;;5098388;28;20038;-71
2021/09/22 09:25:52;;;;;;;7.85;5.60;;;21.40;65.20;;;;;;5095566;28;20081;-71
2021/09/22 09:28:32;;;;;;;7.15;4.38;;;21.40;65.20;;;;;;5097080;28;20376;-71
2021/09/22 09:31:18;;;;;;;6.35;4.10;;;21.80;65.10;;;;;;5087492;28;20028;-70
2021/09/22 09:33:48;;;;;;;8.57;4.30;;;22.20;62.90;;;;;;5092156;28;20031;-71
2021/09/22 09:36:34;;;;;;;7.38;4.40;;;21.60;62.80;;;;;;5084215;28;20056;-71
2021/09/22 09:39:08;;;;;;;7.82;4.20;;;21.60;63.90;;;;;;5088311;28;20028;-70
2021/09/22 09:41:50;;;;;;;6.47;3.50;;;22.40;63.60;;;;;;5084251;28;20441;-69
2021/09/22 09:44:18;;;;;;;6.28;3.63;;;22.90;63.20;;;;;;5086111;28;20345;-69
2021/09/22 09:46:45;;;;;;;6.97;3.58;;;22.90;62.30;;;;;;5081829;28;20113;-68
2021/09/22 09:49:14;;;;;;;6.60;3.50;;;22.60;62.00;;;;;;5084260;28;20032;-68
2021/09/22 09:51:57;;;;;;;6.55;3.10;;;22.40;62.50;;;;;;5085168;28;20028;-68
2021/09/22 09:54:36;;;;;;;4.78;2.90;;;22.50;61.30;;;;;;5084445;28;20024;-68
2021/09/22 09:57:16;;;;;;;6.97;3.13;;;22.90;61.50;;;;;;5082186;28;20420;-68
2021/09/22 09:59:44;;;;;;;6.65;3.00;;;22.80;61.20;;;;;;5083338;28;20024;-69
2021/09/22 10:02:28;;;;;;;5.18;2.95;;;22.50;59.90;;;;;;5089955;28;20024;-69
2021/09/22 10:04:54;;;;;;;4.53;2.87;;;21.90;62.40;;;;;;5083629;28;20177;-69
2021/09/22 10:07:20;;;;;;;6.57;3.75;;;22.10;63.90;;;;;;5085495;28;21755;-70
2021/09/22 10:09:50;;;;;;;7.03;5.10;;;22.60;63.20;;;;;;5086738;28;20024;-69
2021/09/22 10:12:17;;;;;;;11.05;5.70;;;22.80;64.70;;;;;;5083546;28;20085;-70
2021/09/22 10:14:46;;;;;;;9.80;7.45;;;22.90;65.00;;;;;;5083412;28;20115;-69
2021/09/22 10:17:14;;;;;;;9.23;7.07;;;23.00;64.30;;;;;;5084314;28;20044;-70
2021/09/22 10:19:42;;;;;;;11.48;7.03;;;22.40;67.10;;;;;;5081564;28;20470;-69
2021/09/22 10:22:07;;;;;;;10.55;7.70;;;22.50;63.30;;;;;;5087706;28;20020;-69
2021/09/22 10:24:33;;;;;;;10.98;7.90;;;23.10;64.40;;;;;;5091155;28;20020;-69
2021/09/22 10:26:59;;;;;;;13.00;8.75;;;22.50;65.80;;;;;;5078462;28;20033;-69
2021/09/22 10:29:35;;;;;;;14.38;8.70;;;21.10;66.80;;;;;;5084180;28;20089;-70
2021/09/22 10:32:02;;;;;;;10.75;8.65;;;19.90;70.50;;;;;;5084670;28;20054;-69
2021/09/22 10:34:36;;;;;;;11.57;6.90;;;19.50;73.30;;;;;;5082669;28;20023;-69
2021/09/22 10:37:30;;;;;;;12.32;8.30;;;20.20;72.00;;;;;;5084503;28;20031;-70
2021/09/22 10:39:55;;;;;;;11.70;8.57;;;20.90;68.50;;;;;;5084747;28;20103;-69
2021/09/22 10:42:24;;;;;;;12.82;8.32;;;20.70;68.80;;;;;;5080622;28;20103;-70
2021/09/22 10:44:50;;;;;;;11.25;7.72;;;20.40;70.90;;;;;;5084564;28;20024;-69
2021/09/22 10:47:33;;;;;;;13.40;8.23;;;21.20;70.40;;;;;;5086634;28;20424;-69
2021/09/22 10:50:06;;;;;;;13.45;8.88;;;21.50;67.20;;;;;;5084406;28;20020;-69
2021/09/22 10:52:37;;;;;;;11.07;7.70;;;21.40;67.30;;;;;;5087087;28;20035;-69
2021/09/22 10:55:14;;;;;;;11.80;8.07;;;21.30;68.00;;;;;;5079490;28;20035;-69
2021/09/22 10:57:45;;;;;;;10.13;6.78;;;21.50;67.70;;;;;;5080110;28;20017;-69
2021/09/22 11:00:19;;;;;;;11.15;6.55;;;21.60;68.70;;;;;;5082299;28;20073;-69
2021/09/22 11:02:52;;;;;;;9.60;6.95;;;21.90;68.30;;;;;;5081358;28;20429;-70
2021/09/22 11:05:27;;;;;;;;;;;22.20;65.90;;;;;;5082547;28;20057;-69
2021/09/22 11:07:52;;;;;;;10.43;6.90;;;22.50;65.20;;;;;;5085143;28;20255;-70
2021/09/22 11:10:43;;;;;;;9.45;6.40;;;22.40;65.10;;;;;;5085930;28;20028;-71
2021/09/22 11:13:23;;;;;;;10.98;7.30;;;21.80;68.40;;;;;;5082121;28;20034;-69
2021/09/22 11:15:50;;;;;;;10.80;7.07;;;22.10;67.90;;;;;;5082232;28;20096;-69
2021/09/22 11:18:19;;;;;;;9.13;7.00;;;22.00;66.40;;;;;;5082332;28;20031;-69
2021/09/22 11:20:58;;;;;;;7.63;5.80;;;22.20;67.70;;;;;;5084757;28;20031;-68
2021/09/22 11:23:26;;;;;;;9.48;6.20;;;23.10;68.60;;;;;;5083800;28;20031;-68
2021/09/22 11:25:52;;;;;;;8.27;6.00;;;23.90;61.10;;;;;;5084318;28;20024;-68
2021/09/22 11:28:20;;;;;;;8.20;5.75;;;23.70;62.70;;;;;;5083329;28;20032;-70
2021/09/22 11:30:52;;;;;;;7.55;5.45;;;24.00;63.40;;;;;;5080948;28;20105;-69
2021/09/22 11:33:22;;;;;;;10.65;7.57;;;24.30;61.10;;;;;;5082652;28;20028;-70
2021/09/22 11:35:48;;;;;;;11.35;6.22;;;23.70;62.20;;;;;;5080336;28;20027;-69
2021/09/22 11:38:14;;;;;;;9.38;6.45;;;23.60;64.70;;;;;;5083358;28;20057;-69
2021/09/22 11:40:40;;;;;;;9.30;6.82;;;23.60;63.40;;;;;;5076215;28;20026;-69
2021/09/22 11:43:11;;;;;;;11.32;7.50;;;23.00;64.70;;;;;;5089048;28;20024;-69
2021/09/22 11:45:39;;;;;;;10.68;7.47;;;22.10;65.70;;;;;;5095973;28;20104;-69
2021/09/22 11:48:10;;;;;;;10.55;7.20;;;21.90;66.60;;;;;;5096208;28;20073;-69
2021/09/22 11:50:42;;;;;;;11.00;7.82;;;21.60;69.50;;;;;;5096348;28;20016;-69
2021/09/22 11:53:12;;;;;;;10.25;7.38;;;21.40;69.10;;;;;;5096106;28;20020;-68
2021/09/22 11:55:40;;;;;;;10.32;7.00;;;21.90;67.10;;;;;;5096100;28;20032;-69
2021/09/22 11:58:07;;;;;;;10.52;7.45;;;22.20;67.60;;;;;;5094913;28;20040;-70
2021/09/22 12:00:33;;;;;;;12.55;7.65;;;22.80;67.90;;;;;;5095232;28;20093;-69
2021/09/22 12:03:04;;;;;;;9.77;7.43;;;22.60;65.20;;;;;;5095874;28;20012;-71
2021/09/22 12:05:29;;;;;;;9.05;6.88;;;22.20;66.00;;;;;;5095937;28;20024;-70
2021/09/22 12:07:55;;;;;;;10.13;7.25;;;21.90;67.60;;;;;;5095974;28;20089;-69
2021/09/22 12:10:23;;;;;;;9.40;6.78;;;21.40;69.00;;;;;;5095891;28;20036;-70
2021/09/22 12:12:49;;;;;;;9.95;6.80;;;21.50;68.80;;;;;;5093468;28;20040;-70
2021/09/22 12:15:15;;;;;;;8.38;6.20;;;21.80;68.30;;;;;;5095807;28;20400;-70
2021/09/22 12:17:44;;;;;;;9.15;6.18;;;22.00;67.60;;;;;;5095779;28;20051;-70
2021/09/22 12:20:14;;;;;;;8.30;5.78;;;22.20;69.00;;;;;;5095800;28;20027;-70
2021/09/22 12:22:42;;;;;;;9.45;6.72;;;22.40;67.40;;;;;;5095972;28;20368;-69
2021/09/22 12:25:09;;;;;;;8.52;6.07;;;22.70;65.00;;;;;;5095302;28;20028;-70
2021/09/22 12:27:36;;;;;;;9.50;6.13;;;22.60;64.70;;;;;;5094038;28;20056;-70
2021/09/22 12:30:07;;;;;;;11.88;7.80;;;22.20;66.70;;;;;;5095776;28;20020;-69
2021/09/22 12:32:49;;;;;;;11.10;7.70;;;22.60;65.40;;;;;;5095494;28;20028;-70
2021/09/22 12:35:15;;;;;;;11.32;7.32;;;22.30;66.50;;;;;;5095596;28;20421;-70
2021/09/22 12:37:41;;;;;;;10.85;7.10;;;22.30;66.70;;;;;;5095447;28;20046;-70
2021/09/22 12:40:11;;;;;;;11.48;7.75;;;21.90;69.00;;;;;;5095607;28;20380;-70